Terminal Aerodrome Forecast
Issued by NWS

Home | Current Version | Previous Version | Text Only | Print | Product List | Glossary On
Versions: 1 2 3 4 5 6 7 8 9 10 11 12 13 14 15 16 17 18 19 20 21 22 23 24 25 26
083
FTUS46 KSGX 192347
TAFCRQ
TAF
KCRQ 192347Z 2000/2024 VRB06KT P6SM OVC020
      TEMPO 2001/2004 3SM -SHRA BKN010
     FM200500 25010G18KT P6SM OVC020
     FM201200 28012G20KT P6SM SCT025 SCT035=

USA.gov is the U.S. government's official web portal to all federal, state and local government web resources and services.